sensor_id;sensor_type;location;lat;lon;timestamp;P1;durP1;ratioP1;P2;durP2;ratioP2
20069;SDS011;10195;50.868;4.382;2023-02-26T00:02:24;12.40;;;3.10;;
20069;SDS011;10195;50.868;4.382;2023-02-26T00:04:50;14.73;;;3.40;;
20069;SDS011;10195;50.868;4.382;2023-02-26T00:07:16;12.23;;;3.60;;
20069;SDS011;10195;50.868;4.382;2023-02-26T00:09:42;12.23;;;3.40;;
20069;SDS011;10195;50.868;4.382;2023-02-26T00:12:09;16.23;;;3.70;;
20069;SDS011;10195;50.868;4.382;2023-02-26T00:14:36;12.17;;;3.53;;
20069;SDS011;10195;50.868;4.382;2023-02-26T00:19:46;10.87;;;3.27;;
20069;SDS011;10195;50.868;4.382;2023-02-26T00:22:12;11.33;;;3.40;;
20069;SDS011;10195;50.868;4.382;2023-02-26T00:24:38;12.10;;;3.73;;
20069;SDS011;10195;50.868;4.382;2023-02-26T00:27:04;13.70;;;3.67;;
20069;SDS011;10195;50.868;4.382;2023-02-26T00:29:29;16.50;;;4.10;;
20069;SDS011;10195;50.868;4.382;2023-02-26T00:31:55;15.03;;;3.53;;
20069;SDS011;10195;50.868;4.382;2023-02-26T00:34:21;11.50;;;3.53;;
20069;SDS011;10195;50.868;4.382;2023-02-26T00:36:49;13.33;;;3.90;;
20069;SDS011;10195;50.868;4.382;2023-02-26T00:42:04;10.67;;;3.50;;
20069;SDS011;10195;50.868;4.382;2023-02-26T00:44:31;14.23;;;3.93;;
20069;SDS011;10195;50.868;4.382;2023-02-26T00:47:03;12.47;;;3.20;;
20069;SDS011;10195;50.868;4.382;2023-02-26T00:52:09;18.27;;;3.50;;
20069;SDS011;10195;50.868;4.382;2023-02-26T00:54:39;17.00;;;3.93;;
20069;SDS011;10195;50.868;4.382;2023-02-26T00:57:04;12.70;;;3.10;;
20069;SDS011;10195;50.868;4.382;2023-02-26T00:59:30;13.70;;;3.23;;
20069;SDS011;10195;50.868;4.382;2023-02-26T01:01:56;15.83;;;4.27;;
20069;SDS011;10195;50.868;4.382;2023-02-26T01:04:22;15.17;;;4.23;;
20069;SDS011;10195;50.868;4.382;2023-02-26T01:06:53;14.67;;;3.60;;
20069;SDS011;10195;50.868;4.382;2023-02-26T01:11:58;11.17;;;3.43;;
20069;SDS011;10195;50.868;4.382;2023-02-26T01:14:28;16.17;;;3.67;;
20069;SDS011;10195;50.868;4.382;2023-02-26T01:17:01;16.17;;;3.63;;
20069;SDS011;10195;50.868;4.382;2023-02-26T01:25:14;17.27;;;3.67;;
20069;SDS011;10195;50.868;4.382;2023-02-26T01:27:45;13.07;;;3.27;;
20069;SDS011;10195;50.868;4.382;2023-02-26T01:30:11;10.40;;;3.10;;
20069;SDS011;10195;50.868;4.382;2023-02-26T01:43:34;9.50;;;3.03;;
20069;SDS011;10195;50.868;4.382;2023-02-26T01:46:13;21.20;;;3.77;;
20069;SDS011;10195;50.868;4.382;2023-02-26T01:48:56;13.70;;;3.13;;
20069;SDS011;10195;50.868;4.382;2023-02-26T01:54:20;17.93;;;2.73;;
20069;SDS011;10195;50.868;4.382;2023-02-26T01:57:13;8.40;;;2.97;;
20069;SDS011;10195;50.868;4.382;2023-02-26T01:59:43;14.77;;;3.87;;
20069;SDS011;10195;50.868;4.382;2023-02-26T02:02:11;11.20;;;3.40;;
20069;SDS011;10195;50.868;4.382;2023-02-26T02:04:41;11.60;;;3.20;;
20069;SDS011;10195;50.868;4.382;2023-02-26T02:07:07;10.77;;;3.50;;
20069;SDS011;10195;50.868;4.382;2023-02-26T02:09:33;9.63;;;3.30;;
20069;SDS011;10195;50.868;4.382;2023-02-26T02:26:14;12.57;;;3.37;;
20069;SDS011;10195;50.868;4.382;2023-02-26T02:31:41;10.97;;;3.20;;
20069;SDS011;10195;50.868;4.382;2023-02-26T02:36:53;6.97;;;2.07;;
20069;SDS011;10195;50.868;4.382;2023-02-26T02:39:30;16.93;;;3.33;;
20069;SDS011;10195;50.868;4.382;2023-02-26T02:42:22;13.90;;;2.97;;
20069;SDS011;10195;50.868;4.382;2023-02-26T02:44:56;8.10;;;3.30;;
20069;SDS011;10195;50.868;4.382;2023-02-26T02:47:26;12.87;;;3.20;;
20069;SDS011;10195;50.868;4.382;2023-02-26T02:52:34;11.40;;;3.40;;
20069;SDS011;10195;50.868;4.382;2023-02-26T02:55:23;8.43;;;3.33;;
20069;SDS011;10195;50.868;4.382;2023-02-26T02:57:56;12.43;;;3.43;;
20069;SDS011;10195;50.868;4.382;2023-02-26T03:00:29;10.23;;;3.87;;
20069;SDS011;10195;50.868;4.382;2023-02-26T03:05:35;13.23;;;3.20;;
20069;SDS011;10195;50.868;4.382;2023-02-26T03:08:03;11.53;;;2.40;;
20069;SDS011;10195;50.868;4.382;2023-02-26T03:10:31;10.37;;;2.80;;
20069;SDS011;10195;50.868;4.382;2023-02-26T03:12:58;12.07;;;2.93;;
20069;SDS011;10195;50.868;4.382;2023-02-26T03:26:41;6.23;;;2.00;;
20069;SDS011;10195;50.868;4.382;2023-02-26T03:32:05;6.17;;;1.50;;
20069;SDS011;10195;50.868;4.382;2023-02-26T03:34:40;7.70;;;1.93;;
20069;SDS011;10195;50.868;4.382;2023-02-26T03:37:20;12.33;;;2.33;;
20069;SDS011;10195;50.868;4.382;2023-02-26T03:39:52;8.30;;;2.57;;
20069;SDS011;10195;50.868;4.382;2023-02-26T03:42:26;9.47;;;2.00;;
20069;SDS011;10195;50.868;4.382;2023-02-26T03:45:04;5.27;;;1.57;;
20069;SDS011;10195;50.868;4.382;2023-02-26T03:47:34;17.80;;;2.13;;
20069;SDS011;10195;50.868;4.382;2023-02-26T03:50:19;5.20;;;1.90;;
20069;SDS011;10195;50.868;4.382;2023-02-26T03:53:05;5.53;;;2.37;;
20069;SDS011;10195;50.868;4.382;2023-02-26T03:55:35;7.87;;;2.10;;
20069;SDS011;10195;50.868;4.382;2023-02-26T03:58:09;2.50;;;1.03;;
20069;SDS011;10195;50.868;4.382;2023-02-26T04:00:35;7.80;;;1.97;;
20069;SDS011;10195;50.868;4.382;2023-02-26T04:03:05;12.47;;;2.40;;
20069;SDS011;10195;50.868;4.382;2023-02-26T04:05:37;3.50;;;1.67;;
20069;SDS011;10195;50.868;4.382;2023-02-26T04:08:04;4.47;;;2.00;;
20069;SDS011;10195;50.868;4.382;2023-02-26T04:11:13;6.60;;;2.20;;
20069;SDS011;10195;50.868;4.382;2023-02-26T04:13:22;9.27;;;2.10;;
20069;SDS011;10195;50.868;4.382;2023-02-26T04:15:47;9.03;;;1.90;;
20069;SDS011;10195;50.868;4.382;2023-02-26T04:18:13;11.90;;;2.00;;
20069;SDS011;10195;50.868;4.382;2023-02-26T04:20:38;8.43;;;2.20;;
20069;SDS011;10195;50.868;4.382;2023-02-26T04:23:04;10.53;;;2.10;;
20069;SDS011;10195;50.868;4.382;2023-02-26T04:25:30;7.53;;;2.17;;
20069;SDS011;10195;50.868;4.382;2023-02-26T04:27:55;16.97;;;2.67;;
20069;SDS011;10195;50.868;4.382;2023-02-26T04:30:21;8.33;;;2.20;;
20069;SDS011;10195;50.868;4.382;2023-02-26T04:32:47;7.13;;;1.80;;
20069;SDS011;10195;50.868;4.382;2023-02-26T04:35:13;4.27;;;1.23;;
20069;SDS011;10195;50.868;4.382;2023-02-26T04:37:39;8.67;;;2.10;;
20069;SDS011;10195;50.868;4.382;2023-02-26T04:40:05;8.23;;;2.10;;
20069;SDS011;10195;50.868;4.382;2023-02-26T04:42:31;12.27;;;2.33;;
20069;SDS011;10195;50.868;4.382;2023-02-26T04:44:56;5.43;;;2.00;;
20069;SDS011;10195;50.868;4.382;2023-02-26T04:47:22;7.37;;;1.90;;
20069;SDS011;10195;50.868;4.382;2023-02-26T04:49:48;6.10;;;1.43;;
20069;SDS011;10195;50.868;4.382;2023-02-26T04:52:13;8.93;;;1.43;;
20069;SDS011;10195;50.868;4.382;2023-02-26T04:54:39;7.77;;;2.00;;
20069;SDS011;10195;50.868;4.382;2023-02-26T04:57:05;11.10;;;2.37;;
20069;SDS011;10195;50.868;4.382;2023-02-26T04:59:31;7.57;;;1.63;;
20069;SDS011;10195;50.868;4.382;2023-02-26T05:01:57;8.23;;;1.70;;
20069;SDS011;10195;50.868;4.382;2023-02-26T05:04:23;6.03;;;1.50;;
20069;SDS011;10195;50.868;4.382;2023-02-26T05:06:49;4.83;;;1.70;;
20069;SDS011;10195;50.868;4.382;2023-02-26T05:09:15;5.93;;;1.80;;
20069;SDS011;10195;50.868;4.382;2023-02-26T05:11:40;10.80;;;2.17;;
20069;SDS011;10195;50.868;4.382;2023-02-26T05:14:06;6.73;;;1.77;;
20069;SDS011;10195;50.868;4.382;2023-02-26T05:16:32;3.63;;;1.27;;
20069;SDS011;10195;50.868;4.382;2023-02-26T05:18:57;7.70;;;1.37;;
20069;SDS011;10195;50.868;4.382;2023-02-26T05:21:23;7.17;;;1.90;;
20069;SDS011;10195;50.868;4.382;2023-02-26T05:23:49;8.37;;;1.50;;
20069;SDS011;10195;50.868;4.382;2023-02-26T05:26:14;10.63;;;1.73;;
20069;SDS011;10195;50.868;4.382;2023-02-26T05:28:40;3.93;;;1.23;;
20069;SDS011;10195;50.868;4.382;2023-02-26T05:31:09;9.23;;;1.80;;
20069;SDS011;10195;50.868;4.382;2023-02-26T05:33:36;4.33;;;1.60;;
20069;SDS011;10195;50.868;4.382;2023-02-26T05:36:01;7.67;;;2.10;;
20069;SDS011;10195;50.868;4.382;2023-02-26T05:38:27;11.13;;;1.60;;
20069;SDS011;10195;50.868;4.382;2023-02-26T05:40:56;9.00;;;1.90;;
20069;SDS011;10195;50.868;4.382;2023-02-26T05:43:22;9.80;;;2.13;;
20069;SDS011;10195;50.868;4.382;2023-02-26T05:45:49;6.53;;;2.00;;
20069;SDS011;10195;50.868;4.382;2023-02-26T05:48:15;4.00;;;1.10;;
20069;SDS011;10195;50.868;4.382;2023-02-26T05:50:41;4.10;;;1.93;;
20069;SDS011;10195;50.868;4.382;2023-02-26T05:53:06;9.17;;;1.97;;
20069;SDS011;10195;50.868;4.382;2023-02-26T05:55:32;9.13;;;1.50;;
20069;SDS011;10195;50.868;4.382;2023-02-26T05:57:58;1.03;;;0.87;;
20069;SDS011;10195;50.868;4.382;2023-02-26T06:00:24;1.47;;;1.07;;
20069;SDS011;10195;50.868;4.382;2023-02-26T06:02:50;7.30;;;1.97;;
20069;SDS011;10195;50.868;4.382;2023-02-26T06:05:15;3.77;;;1.47;;
20069;SDS011;10195;50.868;4.382;2023-02-26T06:07:41;10.50;;;1.87;;
20069;SDS011;10195;50.868;4.382;2023-02-26T06:10:07;3.03;;;1.23;;
20069;SDS011;10195;50.868;4.382;2023-02-26T06:12:34;2.10;;;1.00;;
20069;SDS011;10195;50.868;4.382;2023-02-26T06:14:59;2.70;;;1.20;;
20069;SDS011;10195;50.868;4.382;2023-02-26T06:17:25;8.87;;;1.60;;
20069;SDS011;10195;50.868;4.382;2023-02-26T06:19:51;19.40;;;1.90;;
20069;SDS011;10195;50.868;4.382;2023-02-26T06:22:17;6.70;;;1.63;;
20069;SDS011;10195;50.868;4.382;2023-02-26T06:24:43;3.27;;;1.13;;
20069;SDS011;10195;50.868;4.382;2023-02-26T06:27:09;11.77;;;2.10;;
20069;SDS011;10195;50.868;4.382;2023-02-26T06:29:35;7.57;;;1.97;;
20069;SDS011;10195;50.868;4.382;2023-02-26T06:32:02;2.83;;;1.10;;
20069;SDS011;10195;50.868;4.382;2023-02-26T06:34:28;3.37;;;1.37;;
20069;SDS011;10195;50.868;4.382;2023-02-26T06:36:54;7.37;;;1.40;;
20069;SDS011;10195;50.868;4.382;2023-02-26T06:39:20;9.87;;;1.80;;
20069;SDS011;10195;50.868;4.382;2023-02-26T06:41:45;5.03;;;1.50;;
20069;SDS011;10195;50.868;4.382;2023-02-26T06:44:11;6.53;;;1.97;;
20069;SDS011;10195;50.868;4.382;2023-02-26T06:46:37;18.60;;;1.77;;
20069;SDS011;10195;50.868;4.382;2023-02-26T06:49:03;6.93;;;1.40;;
20069;SDS011;10195;50.868;4.382;2023-02-26T06:51:28;8.63;;;1.73;;
20069;SDS011;10195;50.868;4.382;2023-02-26T06:53:55;7.20;;;1.70;;
20069;SDS011;10195;50.868;4.382;2023-02-26T06:56:20;13.17;;;2.20;;
20069;SDS011;10195;50.868;4.382;2023-02-26T06:58:47;10.87;;;2.00;;
20069;SDS011;10195;50.868;4.382;2023-02-26T07:01:13;6.30;;;1.80;;
20069;SDS011;10195;50.868;4.382;2023-02-26T07:03:38;6.27;;;1.57;;
20069;SDS011;10195;50.868;4.382;2023-02-26T07:06:05;11.93;;;1.73;;
20069;SDS011;10195;50.868;4.382;2023-02-26T07:08:32;8.93;;;1.77;;
20069;SDS011;10195;50.868;4.382;2023-02-26T07:10:58;3.13;;;1.13;;
20069;SDS011;10195;50.868;4.382;2023-02-26T07:13:24;5.87;;;0.80;;
20069;SDS011;10195;50.868;4.382;2023-02-26T07:15:50;8.37;;;1.57;;
20069;SDS011;10195;50.868;4.382;2023-02-26T07:18:15;5.53;;;1.30;;
20069;SDS011;10195;50.868;4.382;2023-02-26T07:20:41;1.43;;;0.70;;
20069;SDS011;10195;50.868;4.382;2023-02-26T07:23:09;9.33;;;1.50;;
20069;SDS011;10195;50.868;4.382;2023-02-26T07:25:35;1.43;;;1.07;;
20069;SDS011;10195;50.868;4.382;2023-02-26T07:28:01;4.33;;;1.37;;
20069;SDS011;10195;50.868;4.382;2023-02-26T07:30:27;4.43;;;1.40;;
20069;SDS011;10195;50.868;4.382;2023-02-26T07:32:53;7.83;;;1.30;;
20069;SDS011;10195;50.868;4.382;2023-02-26T07:35:19;3.20;;;0.87;;
20069;SDS011;10195;50.868;4.382;2023-02-26T07:37:44;3.63;;;1.33;;
20069;SDS011;10195;50.868;4.382;2023-02-26T07:40:10;8.03;;;1.77;;
20069;SDS011;10195;50.868;4.382;2023-02-26T07:42:37;9.80;;;1.67;;
20069;SDS011;10195;50.868;4.382;2023-02-26T07:45:03;12.17;;;1.63;;
20069;SDS011;10195;50.868;4.382;2023-02-26T07:47:29;7.40;;;1.27;;
20069;SDS011;10195;50.868;4.382;2023-02-26T07:49:55;3.20;;;1.40;;
20069;SDS011;10195;50.868;4.382;2023-02-26T07:52:21;2.30;;;0.90;;
20069;SDS011;10195;50.868;4.382;2023-02-26T07:54:47;3.70;;;1.20;;
20069;SDS011;10195;50.868;4.382;2023-02-26T07:57:12;4.03;;;1.47;;
20069;SDS011;10195;50.868;4.382;2023-02-26T07:59:38;1.00;;;0.93;;
20069;SDS011;10195;50.868;4.382;2023-02-26T08:02:04;5.50;;;1.37;;
20069;SDS011;10195;50.868;4.382;2023-02-26T08:04:30;4.77;;;1.20;;
20069;SDS011;10195;50.868;4.382;2023-02-26T08:06:59;2.17;;;0.93;;
20069;SDS011;10195;50.868;4.382;2023-02-26T08:09:25;6.30;;;1.40;;
20069;SDS011;10195;50.868;4.382;2023-02-26T08:11:51;4.17;;;1.30;;
20069;SDS011;10195;50.868;4.382;2023-02-26T08:14:17;6.40;;;1.50;;
20069;SDS011;10195;50.868;4.382;2023-02-26T08:16:42;6.40;;;1.63;;
20069;SDS011;10195;50.868;4.382;2023-02-26T08:19:08;2.60;;;1.33;;
20069;SDS011;10195;50.868;4.382;2023-02-26T08:21:34;2.73;;;1.10;;
20069;SDS011;10195;50.868;4.382;2023-02-26T08:24:00;5.57;;;1.60;;
20069;SDS011;10195;50.868;4.382;2023-02-26T08:26:26;8.03;;;1.30;;
20069;SDS011;10195;50.868;4.382;2023-02-26T08:28:52;4.40;;;1.37;;
20069;SDS011;10195;50.868;4.382;2023-02-26T08:31:18;5.33;;;1.40;;
20069;SDS011;10195;50.868;4.382;2023-02-26T08:33:44;7.20;;;1.50;;
20069;SDS011;10195;50.868;4.382;2023-02-26T08:36:10;4.87;;;1.30;;
20069;SDS011;10195;50.868;4.382;2023-02-26T08:38:36;0.80;;;0.80;;
20069;SDS011;10195;50.868;4.382;2023-02-26T08:41:01;6.97;;;1.27;;
20069;SDS011;10195;50.868;4.382;2023-02-26T08:43:27;6.27;;;1.63;;
20069;SDS011;10195;50.868;4.382;2023-02-26T08:45:54;4.47;;;1.33;;
20069;SDS011;10195;50.868;4.382;2023-02-26T08:48:20;9.53;;;1.60;;
20069;SDS011;10195;50.868;4.382;2023-02-26T08:50:46;3.53;;;1.40;;
20069;SDS011;10195;50.868;4.382;2023-02-26T08:53:12;4.97;;;1.37;;
20069;SDS011;10195;50.868;4.382;2023-02-26T08:55:38;1.87;;;1.20;;
20069;SDS011;10195;50.868;4.382;2023-02-26T08:58:04;5.87;;;1.53;;
20069;SDS011;10195;50.868;4.382;2023-02-26T09:00:31;5.90;;;2.47;;
20069;SDS011;10195;50.868;4.382;2023-02-26T09:02:57;2.73;;;1.33;;
20069;SDS011;10195;50.868;4.382;2023-02-26T09:05:23;7.10;;;1.60;;
20069;SDS011;10195;50.868;4.382;2023-02-26T09:07:49;7.80;;;1.63;;
20069;SDS011;10195;50.868;4.382;2023-02-26T09:10:15;7.93;;;1.60;;
20069;SDS011;10195;50.868;4.382;2023-02-26T09:12:41;1.73;;;1.13;;
20069;SDS011;10195;50.868;4.382;2023-02-26T09:15:07;7.13;;;1.80;;
20069;SDS011;10195;50.868;4.382;2023-02-26T09:17:34;6.10;;;1.30;;
20069;SDS011;10195;50.868;4.382;2023-02-26T09:20:00;1.80;;;1.30;;
20069;SDS011;10195;50.868;4.382;2023-02-26T09:22:28;3.77;;;1.60;;
20069;SDS011;10195;50.868;4.382;2023-02-26T09:24:54;7.07;;;1.43;;
20069;SDS011;10195;50.868;4.382;2023-02-26T09:27:19;3.60;;;1.10;;
20069;SDS011;10195;50.868;4.382;2023-02-26T09:29:45;3.40;;;1.40;;
20069;SDS011;10195;50.868;4.382;2023-02-26T09:32:11;6.33;;;1.67;;
20069;SDS011;10195;50.868;4.382;2023-02-26T09:34:37;4.77;;;1.30;;
20069;SDS011;10195;50.868;4.382;2023-02-26T09:37:04;2.50;;;1.00;;
20069;SDS011;10195;50.868;4.382;2023-02-26T09:39:30;3.93;;;1.30;;
20069;SDS011;10195;50.868;4.382;2023-02-26T09:41:58;3.57;;;1.67;;
20069;SDS011;10195;50.868;4.382;2023-02-26T09:44:33;3.43;;;1.50;;
20069;SDS011;10195;50.868;4.382;2023-02-26T09:47:12;6.73;;;1.00;;
20069;SDS011;10195;50.868;4.382;2023-02-26T09:55:13;3.63;;;1.00;;
20069;SDS011;10195;50.868;4.382;2023-02-26T09:57:45;4.90;;;1.30;;
20069;SDS011;10195;50.868;4.382;2023-02-26T10:00:21;1.97;;;1.20;;
20069;SDS011;10195;50.868;4.382;2023-02-26T10:02:52;4.90;;;1.60;;
20069;SDS011;10195;50.868;4.382;2023-02-26T10:05:22;2.67;;;1.10;;
20069;SDS011;10195;50.868;4.382;2023-02-26T10:07:56;2.67;;;1.20;;
20069;SDS011;10195;50.868;4.382;2023-02-26T10:13:03;1.00;;;0.90;;
20069;SDS011;10195;50.868;4.382;2023-02-26T10:15:39;2.20;;;1.10;;
20069;SDS011;10195;50.868;4.382;2023-02-26T10:18:18;3.67;;;1.50;;
20069;SDS011;10195;50.868;4.382;2023-02-26T10:23:51;3.13;;;1.23;;
20069;SDS011;10195;50.868;4.382;2023-02-26T10:26:22;4.33;;;1.20;;
20069;SDS011;10195;50.868;4.382;2023-02-26T10:32:25;1.47;;;0.80;;
20069;SDS011;10195;50.868;4.382;2023-02-26T10:35:03;3.87;;;1.57;;
20069;SDS011;10195;50.868;4.382;2023-02-26T10:42:59;1.87;;;0.93;;
20069;SDS011;10195;50.868;4.382;2023-02-26T10:45:57;3.73;;;1.30;;
20069;SDS011;10195;50.868;4.382;2023-02-26T10:51:22;2.90;;;1.30;;
20069;SDS011;10195;50.868;4.382;2023-02-26T10:53:55;3.10;;;1.60;;
20069;SDS011;10195;50.868;4.382;2023-02-26T10:56:42;5.90;;;1.37;;
20069;SDS011;10195;50.868;4.382;2023-02-26T10:59:08;3.17;;;1.10;;
20069;SDS011;10195;50.868;4.382;2023-02-26T11:01:33;3.53;;;1.20;;
20069;SDS011;10195;50.868;4.382;2023-02-26T11:04:02;2.43;;;1.27;;
20069;SDS011;10195;50.868;4.382;2023-02-26T11:06:38;3.23;;;0.83;;
20069;SDS011;10195;50.868;4.382;2023-02-26T11:09:13;2.73;;;1.30;;
20069;SDS011;10195;50.868;4.382;2023-02-26T11:12:00;1.67;;;1.03;;
20069;SDS011;10195;50.868;4.382;2023-02-26T11:14:30;5.30;;;1.40;;
20069;SDS011;10195;50.868;4.382;2023-02-26T11:16:58;2.37;;;1.10;;
20069;SDS011;10195;50.868;4.382;2023-02-26T11:22:17;1.57;;;1.07;;
20069;SDS011;10195;50.868;4.382;2023-02-26T11:24:46;5.90;;;0.90;;
20069;SDS011;10195;50.868;4.382;2023-02-26T11:27:13;5.50;;;1.13;;
20069;SDS011;10195;50.868;4.382;2023-02-26T11:29:46;4.73;;;1.47;;
20069;SDS011;10195;50.868;4.382;2023-02-26T11:32:17;2.30;;;0.93;;
20069;SDS011;10195;50.868;4.382;2023-02-26T11:34:46;3.67;;;1.13;;
20069;SDS011;10195;50.868;4.382;2023-02-26T11:37:17;4.10;;;1.43;;
20069;SDS011;10195;50.868;4.382;2023-02-26T11:39:46;5.37;;;1.40;;
20069;SDS011;10195;50.868;4.382;2023-02-26T11:42:21;3.83;;;1.33;;
20069;SDS011;10195;50.868;4.382;2023-02-26T11:44:47;4.13;;;1.40;;
20069;SDS011;10195;50.868;4.382;2023-02-26T11:47:16;6.13;;;2.10;;
20069;SDS011;10195;50.868;4.382;2023-02-26T11:49:53;3.10;;;1.30;;
20069;SDS011;10195;50.868;4.382;2023-02-26T11:54:53;4.07;;;1.30;;
20069;SDS011;10195;50.868;4.382;2023-02-26T11:57:25;3.23;;;1.30;;
20069;SDS011;10195;50.868;4.382;2023-02-26T11:59:54;2.53;;;1.00;;
20069;SDS011;10195;50.868;4.382;2023-02-26T12:02:22;6.80;;;1.47;;
20069;SDS011;10195;50.868;4.382;2023-02-26T12:04:53;4.57;;;1.43;;
20069;SDS011;10195;50.868;4.382;2023-02-26T12:07:21;2.60;;;1.23;;
20069;SDS011;10195;50.868;4.382;2023-02-26T12:09:47;7.53;;;1.93;;
20069;SDS011;10195;50.868;4.382;2023-02-26T12:19:48;3.20;;;0.73;;
20069;SDS011;10195;50.868;4.382;2023-02-26T12:41:38;2.07;;;1.10;;
20069;SDS011;10195;50.868;4.382;2023-02-26T12:47:14;3.20;;;0.87;;
20069;SDS011;10195;50.868;4.382;2023-02-26T13:08:33;3.30;;;1.00;;
20069;SDS011;10195;50.868;4.382;2023-02-26T13:19:27;3.67;;;1.20;;
20069;SDS011;10195;50.868;4.382;2023-02-26T13:22:23;2.20;;;0.80;;
20069;SDS011;10195;50.868;4.382;2023-02-26T13:25:11;3.43;;;1.17;;
20069;SDS011;10195;50.868;4.382;2023-02-26T13:27:39;2.10;;;1.03;;
20069;SDS011;10195;50.868;4.382;2023-02-26T13:30:17;2.77;;;1.13;;
20069;SDS011;10195;50.868;4.382;2023-02-26T13:32:59;6.83;;;2.10;;
20069;SDS011;10195;50.868;4.382;2023-02-26T13:35:31;1.37;;;1.27;;
20069;SDS011;10195;50.868;4.382;2023-02-26T13:38:03;6.07;;;1.17;;
20069;SDS011;10195;50.868;4.382;2023-02-26T13:46:24;2.87;;;1.40;;
20069;SDS011;10195;50.868;4.382;2023-02-26T13:49:35;3.53;;;1.20;;
20069;SDS011;10195;50.868;4.382;2023-02-26T13:52:31;4.87;;;1.30;;
20069;SDS011;10195;50.868;4.382;2023-02-26T13:54:57;1.50;;;1.00;;
20069;SDS011;10195;50.868;4.382;2023-02-26T13:57:34;1.50;;;1.07;;
20069;SDS011;10195;50.868;4.382;2023-02-26T14:02:50;1.60;;;0.90;;
20069;SDS011;10195;50.868;4.382;2023-02-26T14:05:34;2.87;;;1.33;;
20069;SDS011;10195;50.868;4.382;2023-02-26T14:13:07;5.60;;;1.20;;
20069;SDS011;10195;50.868;4.382;2023-02-26T14:26:46;9.23;;;1.27;;
20069;SDS011;10195;50.868;4.382;2023-02-26T14:29:14;1.00;;;0.90;;
20069;SDS011;10195;50.868;4.382;2023-02-26T14:34:14;1.20;;;0.63;;
20069;SDS011;10195;50.868;4.382;2023-02-26T14:36:47;2.03;;;1.23;;
20069;SDS011;10195;50.868;4.382;2023-02-26T14:42:04;3.03;;;1.17;;
20069;SDS011;10195;50.868;4.382;2023-02-26T14:44:42;1.83;;;1.07;;
20069;SDS011;10195;50.868;4.382;2023-02-26T14:47:11;1.53;;;1.30;;
20069;SDS011;10195;50.868;4.382;2023-02-26T14:49:38;2.73;;;1.20;;
20069;SDS011;10195;50.868;4.382;2023-02-26T15:09:20;3.73;;;1.40;;
20069;SDS011;10195;50.868;4.382;2023-02-26T15:25:16;6.13;;;1.67;;
20069;SDS011;10195;50.868;4.382;2023-02-26T15:27:58;5.03;;;1.70;;
20069;SDS011;10195;50.868;4.382;2023-02-26T15:30:25;2.30;;;1.00;;
20069;SDS011;10195;50.868;4.382;2023-02-26T15:32:57;2.63;;;1.37;;
20069;SDS011;10195;50.868;4.382;2023-02-26T15:35:25;4.77;;;1.60;;
20069;SDS011;10195;50.868;4.382;2023-02-26T15:37:54;4.63;;;1.37;;
20069;SDS011;10195;50.868;4.382;2023-02-26T15:40:22;4.23;;;1.50;;
20069;SDS011;10195;50.868;4.382;2023-02-26T15:42:54;2.30;;;1.40;;
20069;SDS011;10195;50.868;4.382;2023-02-26T15:48:30;3.47;;;1.10;;
20069;SDS011;10195;50.868;4.382;2023-02-26T15:51:01;2.73;;;1.17;;
20069;SDS011;10195;50.868;4.382;2023-02-26T15:53:33;3.70;;;1.37;;
20069;SDS011;10195;50.868;4.382;2023-02-26T15:56:06;8.10;;;1.43;;
20069;SDS011;10195;50.868;4.382;2023-02-26T15:58:40;7.17;;;1.40;;
20069;SDS011;10195;50.868;4.382;2023-02-26T16:01:17;5.20;;;1.73;;
20069;SDS011;10195;50.868;4.382;2023-02-26T16:03:44;4.77;;;1.70;;
20069;SDS011;10195;50.868;4.382;2023-02-26T16:06:12;3.70;;;1.57;;
20069;SDS011;10195;50.868;4.382;2023-02-26T16:08:41;3.10;;;1.20;;
20069;SDS011;10195;50.868;4.382;2023-02-26T16:11:07;1.30;;;0.83;;
20069;SDS011;10195;50.868;4.382;2023-02-26T16:13:36;1.67;;;1.40;;
20069;SDS011;10195;50.868;4.382;2023-02-26T16:16:06;6.73;;;1.87;;
20069;SDS011;10195;50.868;4.382;2023-02-26T16:18:36;3.77;;;1.67;;
20069;SDS011;10195;50.868;4.382;2023-02-26T16:21:06;4.13;;;1.70;;
20069;SDS011;10195;50.868;4.382;2023-02-26T16:26:11;6.30;;;1.57;;
20069;SDS011;10195;50.868;4.382;2023-02-26T16:28:45;1.83;;;1.00;;
20069;SDS011;10195;50.868;4.382;2023-02-26T16:31:18;4.43;;;1.63;;
20069;SDS011;10195;50.868;4.382;2023-02-26T16:33:52;1.20;;;1.00;;
20069;SDS011;10195;50.868;4.382;2023-02-26T16:36:24;2.70;;;1.30;;
20069;SDS011;10195;50.868;4.382;2023-02-26T16:41:35;4.07;;;1.43;;
20069;SDS011;10195;50.868;4.382;2023-02-26T16:44:03;4.77;;;1.97;;
20069;SDS011;10195;50.868;4.382;2023-02-26T16:46:49;2.17;;;1.60;;
20069;SDS011;10195;50.868;4.382;2023-02-26T16:49:28;1.97;;;1.23;;
20069;SDS011;10195;50.868;4.382;2023-02-26T16:51:56;1.87;;;1.33;;
20069;SDS011;10195;50.868;4.382;2023-02-26T16:54:27;8.43;;;1.57;;
20069;SDS011;10195;50.868;4.382;2023-02-26T16:56:57;5.30;;;1.60;;
20069;SDS011;10195;50.868;4.382;2023-02-26T16:59:36;3.97;;;1.47;;
20069;SDS011;10195;50.868;4.382;2023-02-26T17:02:12;4.27;;;1.33;;
20069;SDS011;10195;50.868;4.382;2023-02-26T17:04:47;3.73;;;1.50;;
20069;SDS011;10195;50.868;4.382;2023-02-26T17:07:28;6.57;;;1.90;;
20069;SDS011;10195;50.868;4.382;2023-02-26T17:10:20;2.07;;;1.17;;
20069;SDS011;10195;50.868;4.382;2023-02-26T17:12:49;6.17;;;1.73;;
20069;SDS011;10195;50.868;4.382;2023-02-26T17:15:27;5.13;;;1.37;;
20069;SDS011;10195;50.868;4.382;2023-02-26T17:17:56;4.73;;;1.67;;
20069;SDS011;10195;50.868;4.382;2023-02-26T17:20:23;4.93;;;1.73;;
20069;SDS011;10195;50.868;4.382;2023-02-26T17:22:49;4.23;;;1.73;;
20069;SDS011;10195;50.868;4.382;2023-02-26T17:25:16;3.60;;;2.17;;
20069;SDS011;10195;50.868;4.382;2023-02-26T17:27:43;4.80;;;2.10;;
20069;SDS011;10195;50.868;4.382;2023-02-26T17:30:11;3.50;;;1.37;;
20069;SDS011;10195;50.868;4.382;2023-02-26T17:32:40;4.67;;;1.80;;
20069;SDS011;10195;50.868;4.382;2023-02-26T17:35:06;4.67;;;1.90;;
20069;SDS011;10195;50.868;4.382;2023-02-26T17:37:33;4.83;;;2.20;;
20069;SDS011;10195;50.868;4.382;2023-02-26T17:39:59;3.87;;;2.00;;
20069;SDS011;10195;50.868;4.382;2023-02-26T17:42:26;4.67;;;2.20;;
20069;SDS011;10195;50.868;4.382;2023-02-26T17:44:51;7.13;;;2.20;;
20069;SDS011;10195;50.868;4.382;2023-02-26T17:47:23;3.00;;;1.90;;
20069;SDS011;10195;50.868;4.382;2023-02-26T17:49:50;4.60;;;2.20;;
20069;SDS011;10195;50.868;4.382;2023-02-26T17:52:17;4.53;;;2.43;;
20069;SDS011;10195;50.868;4.382;2023-02-26T17:54:43;4.27;;;2.20;;
20069;SDS011;10195;50.868;4.382;2023-02-26T17:57:15;3.87;;;2.43;;
20069;SDS011;10195;50.868;4.382;2023-02-26T17:59:42;9.47;;;2.00;;
20069;SDS011;10195;50.868;4.382;2023-02-26T18:02:21;4.93;;;2.40;;
20069;SDS011;10195;50.868;4.382;2023-02-26T18:04:51;7.67;;;2.80;;
20069;SDS011;10195;50.868;4.382;2023-02-26T18:07:17;5.13;;;2.13;;
20069;SDS011;10195;50.868;4.382;2023-02-26T18:09:44;8.57;;;3.27;;
20069;SDS011;10195;50.868;4.382;2023-02-26T18:12:12;5.07;;;2.70;;
20069;SDS011;10195;50.868;4.382;2023-02-26T18:14:42;12.10;;;2.83;;
20069;SDS011;10195;50.868;4.382;2023-02-26T18:17:10;6.20;;;2.40;;
20069;SDS011;10195;50.868;4.382;2023-02-26T18:19:38;7.63;;;3.60;;
20069;SDS011;10195;50.868;4.382;2023-02-26T18:22:07;9.90;;;4.70;;
20069;SDS011;10195;50.868;4.382;2023-02-26T18:24:38;11.67;;;3.80;;
20069;SDS011;10195;50.868;4.382;2023-02-26T18:27:04;9.40;;;3.57;;
20069;SDS011;10195;50.868;4.382;2023-02-26T18:29:33;7.27;;;2.90;;
20069;SDS011;10195;50.868;4.382;2023-02-26T18:31:59;7.83;;;3.40;;
20069;SDS011;10195;50.868;4.382;2023-02-26T18:34:27;12.90;;;3.23;;
20069;SDS011;10195;50.868;4.382;2023-02-26T18:36:52;6.57;;;3.00;;
20069;SDS011;10195;50.868;4.382;2023-02-26T18:39:18;5.30;;;2.73;;
20069;SDS011;10195;50.868;4.382;2023-02-26T18:41:44;7.30;;;3.20;;
20069;SDS011;10195;50.868;4.382;2023-02-26T18:44:10;8.27;;;3.30;;